sensor_id;sensor_type;location;lat;lon;timestamp;temperature;humidity
4908;DHT22;2469;51.540;7.364;2022-09-16T00:01:09;18.90;95.00
4908;DHT22;2469;51.540;7.364;2022-09-16T00:03:38;19.00;96.00
4908;DHT22;2469;51.540;7.364;2022-09-16T00:06:16;19.10;95.90
4908;DHT22;2469;51.540;7.364;2022-09-16T00:08:45;19.20;95.80
4908;DHT22;2469;51.540;7.364;2022-09-16T00:11:13;19.30;95.10
4908;DHT22;2469;51.540;7.364;2022-09-16T00:13:42;19.40;95.40
4908;DHT22;2469;51.540;7.364;2022-09-16T00:16:12;19.40;94.40
4908;DHT22;2469;51.540;7.364;2022-09-16T00:18:44;19.10;93.60
4908;DHT22;2469;51.540;7.364;2022-09-16T00:21:12;19.20;95.40
4908;DHT22;2469;51.540;7.364;2022-09-16T00:23:40;19.20;94.80
4908;DHT22;2469;51.540;7.364;2022-09-16T00:26:08;19.30;95.40
4908;DHT22;2469;51.540;7.364;2022-09-16T00:28:36;19.20;95.20
4908;DHT22;2469;51.540;7.364;2022-09-16T00:31:04;19.20;94.40
4908;DHT22;2469;51.540;7.364;2022-09-16T00:33:32;19.10;95.40
4908;DHT22;2469;51.540;7.364;2022-09-16T00:36:10;19.10;94.50
4908;DHT22;2469;51.540;7.364;2022-09-16T00:38:38;19.10;95.50
4908;DHT22;2469;51.540;7.364;2022-09-16T00:41:08;19.10;95.10
4908;DHT22;2469;51.540;7.364;2022-09-16T00:43:50;19.10;95.60
4908;DHT22;2469;51.540;7.364;2022-09-16T00:46:22;18.80;93.70
4908;DHT22;2469;51.540;7.364;2022-09-16T00:48:52;18.70;93.80
4908;DHT22;2469;51.540;7.364;2022-09-16T00:51:22;18.90;95.80
4908;DHT22;2469;51.540;7.364;2022-09-16T00:53:53;18.90;95.40
4908;DHT22;2469;51.540;7.364;2022-09-16T00:56:26;18.90;95.70
4908;DHT22;2469;51.540;7.364;2022-09-16T00:59:00;18.80;95.60
4908;DHT22;2469;51.540;7.364;2022-09-16T01:01:30;18.80;95.10
4908;DHT22;2469;51.540;7.364;2022-09-16T01:04:02;18.80;95.30
4908;DHT22;2469;51.540;7.364;2022-09-16T01:06:35;18.70;94.30
4908;DHT22;2469;51.540;7.364;2022-09-16T01:09:05;18.80;95.60
4908;DHT22;2469;51.540;7.364;2022-09-16T01:11:33;18.70;95.40
4908;DHT22;2469;51.540;7.364;2022-09-16T01:14:02;18.60;95.40
4908;DHT22;2469;51.540;7.364;2022-09-16T01:16:49;18.60;95.10
4908;DHT22;2469;51.540;7.364;2022-09-16T01:19:43;18.60;94.70
4908;DHT22;2469;51.540;7.364;2022-09-16T01:22:29;18.40;94.20
4908;DHT22;2469;51.540;7.364;2022-09-16T01:25:12;18.40;95.60
4908;DHT22;2469;51.540;7.364;2022-09-16T01:30:56;18.60;95.00
4908;DHT22;2469;51.540;7.364;2022-09-16T01:33:33;18.50;94.90
4908;DHT22;2469;51.540;7.364;2022-09-16T01:36:23;18.50;94.50
4908;DHT22;2469;51.540;7.364;2022-09-16T01:39:00;18.80;95.70
4908;DHT22;2469;51.540;7.364;2022-09-16T01:41:40;18.80;95.70
4908;DHT22;2469;51.540;7.364;2022-09-16T01:44:19;18.90;95.90
4908;DHT22;2469;51.540;7.364;2022-09-16T01:46:54;18.80;94.10
4908;DHT22;2469;51.540;7.364;2022-09-16T01:49:32;18.80;95.50
4908;DHT22;2469;51.540;7.364;2022-09-16T01:52:13;18.70;94.20
4908;DHT22;2469;51.540;7.364;2022-09-16T01:54:48;18.60;94.30
4908;DHT22;2469;51.540;7.364;2022-09-16T01:57:21;18.60;95.80
4908;DHT22;2469;51.540;7.364;2022-09-16T01:59:54;18.60;95.20
4908;DHT22;2469;51.540;7.364;2022-09-16T02:02:28;18.50;95.00
4908;DHT22;2469;51.540;7.364;2022-09-16T02:05:00;18.60;95.50
4908;DHT22;2469;51.540;7.364;2022-09-16T02:07:33;18.60;95.50
4908;DHT22;2469;51.540;7.364;2022-09-16T02:10:06;18.50;95.40
4908;DHT22;2469;51.540;7.364;2022-09-16T02:12:38;18.40;95.70
4908;DHT22;2469;51.540;7.364;2022-09-16T02:15:09;18.30;94.90
4908;DHT22;2469;51.540;7.364;2022-09-16T02:17:43;18.30;95.20
4908;DHT22;2469;51.540;7.364;2022-09-16T02:20:16;18.10;94.50
4908;DHT22;2469;51.540;7.364;2022-09-16T02:22:48;18.10;95.90
4908;DHT22;2469;51.540;7.364;2022-09-16T02:25:18;18.30;96.30
4908;DHT22;2469;51.540;7.364;2022-09-16T02:27:47;18.50;95.50
4908;DHT22;2469;51.540;7.364;2022-09-16T02:30:18;18.50;96.10
4908;DHT22;2469;51.540;7.364;2022-09-16T02:32:51;18.60;95.80
4908;DHT22;2469;51.540;7.364;2022-09-16T02:35:22;18.70;95.70
4908;DHT22;2469;51.540;7.364;2022-09-16T02:37:53;18.60;95.80
4908;DHT22;2469;51.540;7.364;2022-09-16T02:40:25;18.60;95.90
4908;DHT22;2469;51.540;7.364;2022-09-16T02:42:56;18.50;95.60
4908;DHT22;2469;51.540;7.364;2022-09-16T02:45:28;18.60;95.80
4908;DHT22;2469;51.540;7.364;2022-09-16T02:48:02;18.50;95.20
4908;DHT22;2469;51.540;7.364;2022-09-16T02:50:37;18.50;95.30
4908;DHT22;2469;51.540;7.364;2022-09-16T02:53:10;18.40;94.50
4908;DHT22;2469;51.540;7.364;2022-09-16T02:55:48;18.50;95.00
4908;DHT22;2469;51.540;7.364;2022-09-16T02:58:17;18.50;96.00
4908;DHT22;2469;51.540;7.364;2022-09-16T03:00:48;18.60;95.80
4908;DHT22;2469;51.540;7.364;2022-09-16T03:03:18;18.70;94.90
4908;DHT22;2469;51.540;7.364;2022-09-16T03:06:10;18.80;95.40
4908;DHT22;2469;51.540;7.364;2022-09-16T03:08:41;19.00;94.90
4908;DHT22;2469;51.540;7.364;2022-09-16T03:11:22;19.10;95.10
4908;DHT22;2469;51.540;7.364;2022-09-16T03:14:09;19.10;95.10
4908;DHT22;2469;51.540;7.364;2022-09-16T03:16:48;19.00;95.10
4908;DHT22;2469;51.540;7.364;2022-09-16T03:19:25;18.90;94.70
4908;DHT22;2469;51.540;7.364;2022-09-16T03:22:00;18.80;95.20
4908;DHT22;2469;51.540;7.364;2022-09-16T03:24:36;18.80;95.30
4908;DHT22;2469;51.540;7.364;2022-09-16T03:27:11;18.90;95.20
4908;DHT22;2469;51.540;7.364;2022-09-16T03:29:45;18.90;95.30
4908;DHT22;2469;51.540;7.364;2022-09-16T03:32:18;19.00;95.10
4908;DHT22;2469;51.540;7.364;2022-09-16T03:34:51;18.90;93.40
4908;DHT22;2469;51.540;7.364;2022-09-16T03:37:21;18.70;94.70
4908;DHT22;2469;51.540;7.364;2022-09-16T03:39:52;18.70;95.30
4908;DHT22;2469;51.540;7.364;2022-09-16T03:42:22;18.70;94.90
4908;DHT22;2469;51.540;7.364;2022-09-16T03:44:50;18.60;95.20
4908;DHT22;2469;51.540;7.364;2022-09-16T03:47:17;18.40;93.40
4908;DHT22;2469;51.540;7.364;2022-09-16T03:49:45;18.30;94.60
4908;DHT22;2469;51.540;7.364;2022-09-16T03:52:15;18.20;95.30
4908;DHT22;2469;51.540;7.364;2022-09-16T03:54:44;18.30;95.10
4908;DHT22;2469;51.540;7.364;2022-09-16T03:57:12;18.30;95.50
4908;DHT22;2469;51.540;7.364;2022-09-16T03:59:40;18.30;95.30
4908;DHT22;2469;51.540;7.364;2022-09-16T04:02:08;18.20;95.00
4908;DHT22;2469;51.540;7.364;2022-09-16T04:04:36;18.10;95.30
4908;DHT22;2469;51.540;7.364;2022-09-16T04:07:04;18.20;95.80
4908;DHT22;2469;51.540;7.364;2022-09-16T04:09:33;18.10;95.30
4908;DHT22;2469;51.540;7.364;2022-09-16T04:12:03;17.90;94.40
4908;DHT22;2469;51.540;7.364;2022-09-16T04:14:33;17.80;94.30
4908;DHT22;2469;51.540;7.364;2022-09-16T04:17:01;17.70;95.00
4908;DHT22;2469;51.540;7.364;2022-09-16T04:19:30;17.70;95.40
4908;DHT22;2469;51.540;7.364;2022-09-16T04:21:58;17.60;95.50
4908;DHT22;2469;51.540;7.364;2022-09-16T04:24:26;17.80;96.60
4908;DHT22;2469;51.540;7.364;2022-09-16T04:26:55;18.00;96.10
4908;DHT22;2469;51.540;7.364;2022-09-16T04:29:23;18.00;95.80
4908;DHT22;2469;51.540;7.364;2022-09-16T04:31:51;18.00;95.60
4908;DHT22;2469;51.540;7.364;2022-09-16T04:34:19;18.10;96.20
4908;DHT22;2469;51.540;7.364;2022-09-16T04:36:47;18.30;96.00
4908;DHT22;2469;51.540;7.364;2022-09-16T04:39:15;18.20;94.50
4908;DHT22;2469;51.540;7.364;2022-09-16T04:41:43;18.10;95.60
4908;DHT22;2469;51.540;7.364;2022-09-16T04:44:12;18.00;95.00
4908;DHT22;2469;51.540;7.364;2022-09-16T04:46:40;18.10;96.10
4908;DHT22;2469;51.540;7.364;2022-09-16T04:49:08;18.10;96.00
4908;DHT22;2469;51.540;7.364;2022-09-16T04:51:38;18.10;95.10
4908;DHT22;2469;51.540;7.364;2022-09-16T04:54:06;18.10;95.80
4908;DHT22;2469;51.540;7.364;2022-09-16T04:56:34;18.00;94.90
4908;DHT22;2469;51.540;7.364;2022-09-16T04:59:03;17.90;95.80
4908;DHT22;2469;51.540;7.364;2022-09-16T05:01:35;18.10;96.30
4908;DHT22;2469;51.540;7.364;2022-09-16T05:04:05;18.00;95.90
4908;DHT22;2469;51.540;7.364;2022-09-16T05:06:35;17.80;94.50
4908;DHT22;2469;51.540;7.364;2022-09-16T05:09:04;17.70;94.70
4908;DHT22;2469;51.540;7.364;2022-09-16T05:11:34;17.90;96.30
4908;DHT22;2469;51.540;7.364;2022-09-16T05:14:04;17.80;95.20
4908;DHT22;2469;51.540;7.364;2022-09-16T05:16:34;18.00;96.30
4908;DHT22;2469;51.540;7.364;2022-09-16T05:19:02;17.70;94.40
4908;DHT22;2469;51.540;7.364;2022-09-16T05:21:33;17.40;95.90
4908;DHT22;2469;51.540;7.364;2022-09-16T05:24:03;17.50;95.40
4908;DHT22;2469;51.540;7.364;2022-09-16T05:26:34;17.50;95.60
4908;DHT22;2469;51.540;7.364;2022-09-16T05:29:05;17.70;96.20
4908;DHT22;2469;51.540;7.364;2022-09-16T05:31:36;17.70;95.20
4908;DHT22;2469;51.540;7.364;2022-09-16T05:34:06;17.50;95.40
4908;DHT22;2469;51.540;7.364;2022-09-16T05:36:35;17.50;95.40
4908;DHT22;2469;51.540;7.364;2022-09-16T05:39:05;17.60;95.10
4908;DHT22;2469;51.540;7.364;2022-09-16T05:41:53;17.60;96.30
4908;DHT22;2469;51.540;7.364;2022-09-16T05:44:22;17.90;96.80
4908;DHT22;2469;51.540;7.364;2022-09-16T05:46:51;18.00;97.20
4908;DHT22;2469;51.540;7.364;2022-09-16T05:49:19;18.40;98.00
4908;DHT22;2469;51.540;7.364;2022-09-16T05:51:49;18.40;98.30
4908;DHT22;2469;51.540;7.364;2022-09-16T05:54:18;18.70;98.50
4908;DHT22;2469;51.540;7.364;2022-09-16T05:56:46;18.70;98.20
4908;DHT22;2469;51.540;7.364;2022-09-16T05:59:15;18.70;98.30
4908;DHT22;2469;51.540;7.364;2022-09-16T06:01:44;18.60;97.90
4908;DHT22;2469;51.540;7.364;2022-09-16T06:04:14;18.60;98.10
4908;DHT22;2469;51.540;7.364;2022-09-16T06:06:43;18.50;97.50
4908;DHT22;2469;51.540;7.364;2022-09-16T06:09:13;18.40;98.30
4908;DHT22;2469;51.540;7.364;2022-09-16T06:11:43;18.30;98.10
4908;DHT22;2469;51.540;7.364;2022-09-16T06:14:13;18.40;98.30
4908;DHT22;2469;51.540;7.364;2022-09-16T06:16:42;18.50;95.40
4908;DHT22;2469;51.540;7.364;2022-09-16T06:19:11;18.40;95.60
4908;DHT22;2469;51.540;7.364;2022-09-16T06:21:42;18.30;95.90
4908;DHT22;2469;51.540;7.364;2022-09-16T06:24:11;18.40;96.00
4908;DHT22;2469;51.540;7.364;2022-09-16T06:26:41;18.50;95.90
4908;DHT22;2469;51.540;7.364;2022-09-16T06:29:10;18.50;95.90
4908;DHT22;2469;51.540;7.364;2022-09-16T06:31:38;18.40;95.30
4908;DHT22;2469;51.540;7.364;2022-09-16T06:34:09;18.40;95.20
4908;DHT22;2469;51.540;7.364;2022-09-16T06:36:41;18.40;95.70
4908;DHT22;2469;51.540;7.364;2022-09-16T06:39:12;18.30;95.80
4908;DHT22;2469;51.540;7.364;2022-09-16T06:41:40;18.50;96.10
4908;DHT22;2469;51.540;7.364;2022-09-16T06:44:09;18.50;96.00
4908;DHT22;2469;51.540;7.364;2022-09-16T06:46:36;18.80;94.40
4908;DHT22;2469;51.540;7.364;2022-09-16T06:49:04;18.70;95.60
4908;DHT22;2469;51.540;7.364;2022-09-16T06:51:33;18.90;95.40
4908;DHT22;2469;51.540;7.364;2022-09-16T06:54:05;18.90;94.80
4908;DHT22;2469;51.540;7.364;2022-09-16T06:56:34;18.80;94.10
4908;DHT22;2469;51.540;7.364;2022-09-16T06:59:05;18.90;95.40
4908;DHT22;2469;51.540;7.364;2022-09-16T07:01:33;18.80;95.40
4908;DHT22;2469;51.540;7.364;2022-09-16T07:04:03;18.80;95.60
4908;DHT22;2469;51.540;7.364;2022-09-16T07:06:32;18.70;95.00
4908;DHT22;2469;51.540;7.364;2022-09-16T07:09:22;18.70;95.80
4908;DHT22;2469;51.540;7.364;2022-09-16T07:11:50;18.90;95.50
4908;DHT22;2469;51.540;7.364;2022-09-16T07:14:18;18.90;95.60
4908;DHT22;2469;51.540;7.364;2022-09-16T07:16:46;19.00;95.70
4908;DHT22;2469;51.540;7.364;2022-09-16T07:19:14;18.90;94.90
4908;DHT22;2469;51.540;7.364;2022-09-16T07:21:41;18.70;94.30
4908;DHT22;2469;51.540;7.364;2022-09-16T07:24:11;18.70;94.10
4908;DHT22;2469;51.540;7.364;2022-09-16T07:26:41;18.70;94.90
4908;DHT22;2469;51.540;7.364;2022-09-16T07:29:11;18.60;94.50
4908;DHT22;2469;51.540;7.364;2022-09-16T07:31:39;18.70;95.70
4908;DHT22;2469;51.540;7.364;2022-09-16T07:34:09;18.50;94.40
4908;DHT22;2469;51.540;7.364;2022-09-16T07:36:38;18.50;95.30
4908;DHT22;2469;51.540;7.364;2022-09-16T07:39:07;18.60;95.80
4908;DHT22;2469;51.540;7.364;2022-09-16T07:41:36;18.60;95.50
4908;DHT22;2469;51.540;7.364;2022-09-16T07:44:08;18.50;94.20
4908;DHT22;2469;51.540;7.364;2022-09-16T07:46:36;18.60;95.90
4908;DHT22;2469;51.540;7.364;2022-09-16T07:49:06;18.70;95.80
4908;DHT22;2469;51.540;7.364;2022-09-16T07:51:34;18.70;95.70
4908;DHT22;2469;51.540;7.364;2022-09-16T07:54:04;18.60;94.60
4908;DHT22;2469;51.540;7.364;2022-09-16T07:56:37;18.60;95.60
4908;DHT22;2469;51.540;7.364;2022-09-16T07:59:10;18.60;95.10
4908;DHT22;2469;51.540;7.364;2022-09-16T08:01:44;18.70;95.40
4908;DHT22;2469;51.540;7.364;2022-09-16T08:04:12;18.80;95.40
4908;DHT22;2469;51.540;7.364;2022-09-16T08:06:40;19.00;95.50
4908;DHT22;2469;51.540;7.364;2022-09-16T08:09:08;19.00;95.40
4908;DHT22;2469;51.540;7.364;2022-09-16T08:11:56;19.10;95.20
4908;DHT22;2469;51.540;7.364;2022-09-16T08:14:25;19.20;95.10
4908;DHT22;2469;51.540;7.364;2022-09-16T08:16:53;19.40;94.90
4908;DHT22;2469;51.540;7.364;2022-09-16T08:19:21;19.50;94.70
4908;DHT22;2469;51.540;7.364;2022-09-16T08:21:50;19.60;94.60
4908;DHT22;2469;51.540;7.364;2022-09-16T08:24:18;19.70;94.50
4908;DHT22;2469;51.540;7.364;2022-09-16T08:26:46;19.60;94.40
4908;DHT22;2469;51.540;7.364;2022-09-16T08:29:14;19.50;93.00
4908;DHT22;2469;51.540;7.364;2022-09-16T08:31:44;19.50;94.30
4908;DHT22;2469;51.540;7.364;2022-09-16T08:34:12;19.60;94.50
4908;DHT22;2469;51.540;7.364;2022-09-16T08:36:40;19.70;94.30
4908;DHT22;2469;51.540;7.364;2022-09-16T08:39:09;19.50;91.80
4908;DHT22;2469;51.540;7.364;2022-09-16T08:45:02;19.50;93.80
4908;DHT22;2469;51.540;7.364;2022-09-16T08:47:45;19.80;94.10
4908;DHT22;2469;51.540;7.364;2022-09-16T08:50:21;19.70;91.30
4908;DHT22;2469;51.540;7.364;2022-09-16T08:52:51;19.70;91.00
4908;DHT22;2469;51.540;7.364;2022-09-16T08:55:26;19.70;90.40
4908;DHT22;2469;51.540;7.364;2022-09-16T08:58:02;19.50;89.20
4908;DHT22;2469;51.540;7.364;2022-09-16T09:00:31;19.20;89.50
4908;DHT22;2469;51.540;7.364;2022-09-16T09:03:09;19.30;91.30
4908;DHT22;2469;51.540;7.364;2022-09-16T09:05:46;19.40;90.10
4908;DHT22;2469;51.540;7.364;2022-09-16T09:08:27;19.40;90.20
4908;DHT22;2469;51.540;7.364;2022-09-16T09:11:02;19.40;88.60
4908;DHT22;2469;51.540;7.364;2022-09-16T09:13:42;19.40;88.50
4908;DHT22;2469;51.540;7.364;2022-09-16T09:16:21;19.40;87.80
4908;DHT22;2469;51.540;7.364;2022-09-16T09:19:01;19.30;88.60
4908;DHT22;2469;51.540;7.364;2022-09-16T09:21:37;19.30;88.50
4908;DHT22;2469;51.540;7.364;2022-09-16T09:24:22;19.30;89.10
4908;DHT22;2469;51.540;7.364;2022-09-16T09:26:56;19.20;87.80
4908;DHT22;2469;51.540;7.364;2022-09-16T09:29:34;19.20;89.30
4908;DHT22;2469;51.540;7.364;2022-09-16T09:32:14;19.30;88.20
4908;DHT22;2469;51.540;7.364;2022-09-16T09:34:55;19.10;89.00
4908;DHT22;2469;51.540;7.364;2022-09-16T09:37:35;19.00;90.40
4908;DHT22;2469;51.540;7.364;2022-09-16T09:40:10;19.10;90.60
4908;DHT22;2469;51.540;7.364;2022-09-16T09:42:43;19.10;90.90
4908;DHT22;2469;51.540;7.364;2022-09-16T09:45:18;19.20;91.10
4908;DHT22;2469;51.540;7.364;2022-09-16T09:47:51;19.30;91.10
4908;DHT22;2469;51.540;7.364;2022-09-16T09:50:27;19.30;90.40
4908;DHT22;2469;51.540;7.364;2022-09-16T09:53:06;19.50;91.20
4908;DHT22;2469;51.540;7.364;2022-09-16T09:55:40;19.60;91.40
4908;DHT22;2469;51.540;7.364;2022-09-16T09:58:16;19.70;91.40
4908;DHT22;2469;51.540;7.364;2022-09-16T10:00:45;20.00;91.40
4908;DHT22;2469;51.540;7.364;2022-09-16T10:03:15;20.20;91.20
4908;DHT22;2469;51.540;7.364;2022-09-16T10:05:46;20.20;90.70
4908;DHT22;2469;51.540;7.364;2022-09-16T10:08:21;20.20;90.70
4908;DHT22;2469;51.540;7.364;2022-09-16T10:10:51;20.30;91.10
4908;DHT22;2469;51.540;7.364;2022-09-16T10:13:21;20.20;87.70
4908;DHT22;2469;51.540;7.364;2022-09-16T10:15:52;20.20;87.10
4908;DHT22;2469;51.540;7.364;2022-09-16T10:18:25;20.20;87.80
4908;DHT22;2469;51.540;7.364;2022-09-16T10:21:04;20.20;87.00
4908;DHT22;2469;51.540;7.364;2022-09-16T10:23:34;20.10;85.40
4908;DHT22;2469;51.540;7.364;2022-09-16T10:26:15;20.10;90.50
4908;DHT22;2469;51.540;7.364;2022-09-16T10:28:53;20.30;92.30
4908;DHT22;2469;51.540;7.364;2022-09-16T10:31:22;20.10;90.80
4908;DHT22;2469;51.540;7.364;2022-09-16T10:33:55;20.30;89.60
4908;DHT22;2469;51.540;7.364;2022-09-16T10:36:31;20.40;90.10
4908;DHT22;2469;51.540;7.364;2022-09-16T10:39:00;20.40;88.70
4908;DHT22;2469;51.540;7.364;2022-09-16T10:41:32;20.40;90.70
4908;DHT22;2469;51.540;7.364;2022-09-16T10:44:02;20.40;90.00
4908;DHT22;2469;51.540;7.364;2022-09-16T10:46:31;20.20;90.40
4908;DHT22;2469;51.540;7.364;2022-09-16T10:49:07;19.70;86.50
4908;DHT22;2469;51.540;7.364;2022-09-16T10:51:37;19.40;92.40
4908;DHT22;2469;51.540;7.364;2022-09-16T10:54:05;19.70;93.80
4908;DHT22;2469;51.540;7.364;2022-09-16T10:56:47;20.00;93.50
4908;DHT22;2469;51.540;7.364;2022-09-16T10:59:15;20.10;92.90
4908;DHT22;2469;51.540;7.364;2022-09-16T11:01:48;20.10;93.50
4908;DHT22;2469;51.540;7.364;2022-09-16T11:04:36;19.80;90.30
4908;DHT22;2469;51.540;7.364;2022-09-16T11:07:17;19.60;91.10
4908;DHT22;2469;51.540;7.364;2022-09-16T11:09:55;19.40;92.40
4908;DHT22;2469;51.540;7.364;2022-09-16T11:15:33;18.90;92.40
4908;DHT22;2469;51.540;7.364;2022-09-16T11:18:18;18.50;91.30
4908;DHT22;2469;51.540;7.364;2022-09-16T11:20:59;18.10;91.00
4908;DHT22;2469;51.540;7.364;2022-09-16T11:23:41;17.90;92.80
4908;DHT22;2469;51.540;7.364;2022-09-16T11:26:18;18.10;97.10
4908;DHT22;2469;51.540;7.364;2022-09-16T11:31:45;18.50;98.70
4908;DHT22;2469;51.540;7.364;2022-09-16T11:34:25;18.80;99.00
4908;DHT22;2469;51.540;7.364;2022-09-16T11:37:05;18.90;98.00
4908;DHT22;2469;51.540;7.364;2022-09-16T11:39:47;19.00;92.70
4908;DHT22;2469;51.540;7.364;2022-09-16T11:42:24;19.20;96.40
4908;DHT22;2469;51.540;7.364;2022-09-16T11:45:03;19.50;99.00
4908;DHT22;2469;51.540;7.364;2022-09-16T11:47:49;19.80;98.80
4908;DHT22;2469;51.540;7.364;2022-09-16T11:50:30;20.00;99.00
4908;DHT22;2469;51.540;7.364;2022-09-16T11:53:24;20.30;98.30
4908;DHT22;2469;51.540;7.364;2022-09-16T11:56:03;20.40;98.10
4908;DHT22;2469;51.540;7.364;2022-09-16T11:58:37;20.40;97.90
4908;DHT22;2469;51.540;7.364;2022-09-16T12:01:14;20.40;98.30
4908;DHT22;2469;51.540;7.364;2022-09-16T12:03:54;20.40;93.30
4908;DHT22;2469;51.540;7.364;2022-09-16T12:06:25;19.50;91.10
4908;DHT22;2469;51.540;7.364;2022-09-16T12:08:59;18.80;92.90
4908;DHT22;2469;51.540;7.364;2022-09-16T12:11:37;18.40;92.00
4908;DHT22;2469;51.540;7.364;2022-09-16T12:14:12;18.00;92.90
4908;DHT22;2469;51.540;7.364;2022-09-16T12:16:46;17.70;93.70
4908;DHT22;2469;51.540;7.364;2022-09-16T12:19:18;17.30;93.90
4908;DHT22;2469;51.540;7.364;2022-09-16T12:21:51;17.10;93.80
4908;DHT22;2469;51.540;7.364;2022-09-16T12:24:30;17.10;96.30
4908;DHT22;2469;51.540;7.364;2022-09-16T12:27:05;17.20;96.70
4908;DHT22;2469;51.540;7.364;2022-09-16T12:29:40;17.20;97.80
4908;DHT22;2469;51.540;7.364;2022-09-16T12:32:13;17.40;96.10
4908;DHT22;2469;51.540;7.364;2022-09-16T12:34:45;17.50;95.90
4908;DHT22;2469;51.540;7.364;2022-09-16T12:37:26;17.60;96.70
4908;DHT22;2469;51.540;7.364;2022-09-16T12:39:59;17.80;95.80
4908;DHT22;2469;51.540;7.364;2022-09-16T12:42:50;18.00;94.80
4908;DHT22;2469;51.540;7.364;2022-09-16T12:45:37;18.50;97.90
4908;DHT22;2469;51.540;7.364;2022-09-16T12:48:40;18.80;97.10
4908;DHT22;2469;51.540;7.364;2022-09-16T12:51:25;19.00;95.40
4908;DHT22;2469;51.540;7.364;2022-09-16T12:54:22;19.00;97.90
4908;DHT22;2469;51.540;7.364;2022-09-16T12:57:18;19.10;97.80
4908;DHT22;2469;51.540;7.364;2022-09-16T13:00:10;19.30;98.70
4908;DHT22;2469;51.540;7.364;2022-09-16T13:02:43;19.60;99.00
4908;DHT22;2469;51.540;7.364;2022-09-16T13:05:17;19.90;98.50
4908;DHT22;2469;51.540;7.364;2022-09-16T13:07:50;20.20;98.20
4908;DHT22;2469;51.540;7.364;2022-09-16T13:10:20;20.30;97.90
4908;DHT22;2469;51.540;7.364;2022-09-16T13:13:17;20.60;97.60
4908;DHT22;2469;51.540;7.364;2022-09-16T13:15:55;20.70;97.50
4908;DHT22;2469;51.540;7.364;2022-09-16T13:18:37;20.80;97.50
4908;DHT22;2469;51.540;7.364;2022-09-16T13:21:12;20.70;97.60
4908;DHT22;2469;51.540;7.364;2022-09-16T13:23:45;20.80;97.60
4908;DHT22;2469;51.540;7.364;2022-09-16T13:26:14;20.80;97.60
4908;DHT22;2469;51.540;7.364;2022-09-16T13:28:43;20.90;97.40
4908;DHT22;2469;51.540;7.364;2022-09-16T13:31:19;20.90;97.50
4908;DHT22;2469;51.540;7.364;2022-09-16T13:34:00;20.80;97.70
4908;DHT22;2469;51.540;7.364;2022-09-16T13:36:30;20.80;97.90
4908;DHT22;2469;51.540;7.364;2022-09-16T13:38:59;20.80;98.30
4908;DHT22;2469;51.540;7.364;2022-09-16T13:41:33;20.80;98.20
4908;DHT22;2469;51.540;7.364;2022-09-16T13:44:24;20.80;98.20
4908;DHT22;2469;51.540;7.364;2022-09-16T13:46:52;20.80;98.40
4908;DHT22;2469;51.540;7.364;2022-09-16T13:49:22;20.80;98.30
4908;DHT22;2469;51.540;7.364;2022-09-16T13:51:53;20.90;97.40
4908;DHT22;2469;51.540;7.364;2022-09-16T13:54:27;20.90;97.30
4908;DHT22;2469;51.540;7.364;2022-09-16T13:57:19;21.00;97.70
4908;DHT22;2469;51.540;7.364;2022-09-16T14:00:05;21.10;97.30
4908;DHT22;2469;51.540;7.364;2022-09-16T14:02:54;21.10;97.40
4908;DHT22;2469;51.540;7.364;2022-09-16T14:05:35;21.10;97.40
4908;DHT22;2469;51.540;7.364;2022-09-16T14:08:15;21.00;97.50
4908;DHT22;2469;51.540;7.364;2022-09-16T14:10:52;21.00;97.70
4908;DHT22;2469;51.540;7.364;2022-09-16T14:13:23;21.00;95.50
4908;DHT22;2469;51.540;7.364;2022-09-16T14:15:54;20.70;96.10
4908;DHT22;2469;51.540;7.364;2022-09-16T14:18:27;20.60;94.90
4908;DHT22;2469;51.540;7.364;2022-09-16T14:21:00;20.60;95.40
4908;DHT22;2469;51.540;7.364;2022-09-16T14:23:29;20.70;95.60
4908;DHT22;2469;51.540;7.364;2022-09-16T14:26:09;20.80;96.20
4908;DHT22;2469;51.540;7.364;2022-09-16T14:28:37;20.80;96.10
4908;DHT22;2469;51.540;7.364;2022-09-16T14:31:07;20.80;96.30
4908;DHT22;2469;51.540;7.364;2022-09-16T14:33:41;21.00;95.70
4908;DHT22;2469;51.540;7.364;2022-09-16T14:36:15;20.90;95.80
4908;DHT22;2469;51.540;7.364;2022-09-16T14:38:55;21.00;96.10
4908;DHT22;2469;51.540;7.364;2022-09-16T14:41:29;20.80;93.60
4908;DHT22;2469;51.540;7.364;2022-09-16T14:44:06;20.80;95.20
4908;DHT22;2469;51.540;7.364;2022-09-16T14:46:40;20.80;96.70
4908;DHT22;2469;51.540;7.364;2022-09-16T14:49:10;20.90;96.50
4908;DHT22;2469;51.540;7.364;2022-09-16T14:51:42;21.00;95.40
4908;DHT22;2469;51.540;7.364;2022-09-16T14:54:16;21.20;96.10
4908;DHT22;2469;51.540;7.364;2022-09-16T14:56:54;21.20;96.10
4908;DHT22;2469;51.540;7.364;2022-09-16T14:59:25;21.20;96.10
4908;DHT22;2469;51.540;7.364;2022-09-16T15:01:57;21.10;96.10
4908;DHT22;2469;51.540;7.364;2022-09-16T15:04:32;21.10;96.40
4908;DHT22;2469;51.540;7.364;2022-09-16T15:07:06;21.00;96.00
4908;DHT22;2469;51.540;7.364;2022-09-16T15:09:42;21.10;95.40
4908;DHT22;2469;51.540;7.364;2022-09-16T15:12:20;21.00;95.70
4908;DHT22;2469;51.540;7.364;2022-09-16T15:14:49;20.80;93.20
4908;DHT22;2469;51.540;7.364;2022-09-16T15:17:19;20.70;93.70
4908;DHT22;2469;51.540;7.364;2022-09-16T15:19:52;20.30;92.40
4908;DHT22;2469;51.540;7.364;2022-09-16T15:22:22;20.10;93.70
4908;DHT22;2469;51.540;7.364;2022-09-16T15:24:52;20.00;92.40
4908;DHT22;2469;51.540;7.364;2022-09-16T15:27:26;20.10;92.90
4908;DHT22;2469;51.540;7.364;2022-09-16T15:29:57;20.20;93.30
4908;DHT22;2469;51.540;7.364;2022-09-16T15:32:27;20.30;93.10
4908;DHT22;2469;51.540;7.364;2022-09-16T15:35:11;20.30;93.90
4908;DHT22;2469;51.540;7.364;2022-09-16T15:37:42;20.20;91.50
4908;DHT22;2469;51.540;7.364;2022-09-16T15:40:31;20.20;94.80
4908;DHT22;2469;51.540;7.364;2022-09-16T15:43:10;20.30;94.90
4908;DHT22;2469;51.540;7.364;2022-09-16T15:45:39;20.40;95.00
4908;DHT22;2469;51.540;7.364;2022-09-16T15:48:14;20.50;95.20
4908;DHT22;2469;51.540;7.364;2022-09-16T15:50:47;20.40;95.20
4908;DHT22;2469;51.540;7.364;2022-09-16T15:53:20;20.50;95.30
4908;DHT22;2469;51.540;7.364;2022-09-16T15:55:56;20.50;95.70
4908;DHT22;2469;51.540;7.364;2022-09-16T15:58:35;20.60;95.30
4908;DHT22;2469;51.540;7.364;2022-09-16T16:01:12;20.60;93.90
4908;DHT22;2469;51.540;7.364;2022-09-16T16:03:52;20.50;92.70
4908;DHT22;2469;51.540;7.364;2022-09-16T16:06:43;20.60;95.80
4908;DHT22;2469;51.540;7.364;2022-09-16T16:12:15;21.00;94.90
4908;DHT22;2469;51.540;7.364;2022-09-16T16:14:44;21.00;94.90
4908;DHT22;2469;51.540;7.364;2022-09-16T16:17:14;21.00;94.30
4908;DHT22;2469;51.540;7.364;2022-09-16T16:19:43;20.80;92.20
4908;DHT22;2469;51.540;7.364;2022-09-16T16:22:13;20.80;95.40
4908;DHT22;2469;51.540;7.364;2022-09-16T16:24:41;20.80;95.60
4908;DHT22;2469;51.540;7.364;2022-09-16T16:27:09;20.60;94.20
4908;DHT22;2469;51.540;7.364;2022-09-16T16:29:37;20.60;95.50
4908;DHT22;2469;51.540;7.364;2022-09-16T16:32:07;20.60;96.00
4908;DHT22;2469;51.540;7.364;2022-09-16T16:34:37;20.50;96.20
4908;DHT22;2469;51.540;7.364;2022-09-16T16:37:06;20.40;94.90
4908;DHT22;2469;51.540;7.364;2022-09-16T16:39:35;20.30;95.60
4908;DHT22;2469;51.540;7.364;2022-09-16T16:42:04;20.10;94.10
4908;DHT22;2469;51.540;7.364;2022-09-16T16:44:32;20.20;96.30
4908;DHT22;2469;51.540;7.364;2022-09-16T16:47:00;20.20;96.40
4908;DHT22;2469;51.540;7.364;2022-09-16T16:49:28;20.30;96.80
4908;DHT22;2469;51.540;7.364;2022-09-16T16:51:56;20.50;95.80
4908;DHT22;2469;51.540;7.364;2022-09-16T16:54:25;20.60;96.30
4908;DHT22;2469;51.540;7.364;2022-09-16T16:56:54;20.60;96.00